sensor_id;sensor_type;location;lat;lon;timestamp;temperature;humidity
33645;DHT22;19986;48.190;16.366;2022-12-29T05:06:02;4.70;99.90
33645;DHT22;19986;48.190;16.366;2022-12-29T05:08:29;4.70;99.90
33645;DHT22;19986;48.190;16.366;2022-12-29T05:10:55;4.70;99.90
33645;DHT22;19986;48.190;16.366;2022-12-29T05:13:20;4.70;99.90
33645;DHT22;19986;48.190;16.366;2022-12-29T05:15:51;4.80;99.90
33645;DHT22;19986;48.190;16.366;2022-12-29T05:18:17;4.80;99.90
33645;DHT22;19986;48.190;16.366;2022-12-29T05:20:44;4.80;99.90
33645;DHT22;19986;48.190;16.366;2022-12-29T05:23:10;4.70;99.90
33645;DHT22;19986;48.190;16.366;2022-12-29T05:25:36;4.80;99.90
33645;DHT22;19986;48.190;16.366;2022-12-29T05:28:02;4.70;99.90
33645;DHT22;19986;48.190;16.366;2022-12-29T05:30:28;4.70;99.90
33645;DHT22;19986;48.190;16.366;2022-12-29T05:32:54;4.60;99.90
33645;DHT22;19986;48.190;16.366;2022-12-29T05:35:20;4.70;99.90
33645;DHT22;19986;48.190;16.366;2022-12-29T05:37:46;4.60;99.90
33645;DHT22;19986;48.190;16.366;2022-12-29T05:40:12;4.60;99.90
33645;DHT22;19986;48.190;16.366;2022-12-29T05:42:37;4.50;99.90
33645;DHT22;19986;48.190;16.366;2022-12-29T05:45:04;4.50;99.90
33645;DHT22;19986;48.190;16.366;2022-12-29T05:47:33;4.50;99.90
33645;DHT22;19986;48.190;16.366;2022-12-29T05:49:58;4.50;99.90
33645;DHT22;19986;48.190;16.366;2022-12-29T05:52:24;4.40;99.90
33645;DHT22;19986;48.190;16.366;2022-12-29T05:54:50;4.40;99.90
33645;DHT22;19986;48.190;16.366;2022-12-29T05:57:16;4.40;99.90
33645;DHT22;19986;48.190;16.366;2022-12-29T05:59:42;4.30;99.90
33645;DHT22;19986;48.190;16.366;2022-12-29T06:02:09;4.30;99.90
33645;DHT22;19986;48.190;16.366;2022-12-29T06:04:35;4.30;99.90
33645;DHT22;19986;48.190;16.366;2022-12-29T06:07:01;4.20;99.90
33645;DHT22;19986;48.190;16.366;2022-12-29T06:09:27;4.30;99.90
33645;DHT22;19986;48.190;16.366;2022-12-29T06:11:53;4.20;99.90
33645;DHT22;19986;48.190;16.366;2022-12-29T06:14:19;4.10;99.90
33645;DHT22;19986;48.190;16.366;2022-12-29T06:16:45;4.10;99.90
33645;DHT22;19986;48.190;16.366;2022-12-29T06:19:11;4.10;99.90
33645;DHT22;19986;48.190;16.366;2022-12-29T06:21:37;4.10;99.90
33645;DHT22;19986;48.190;16.366;2022-12-29T06:24:04;4.10;99.90
33645;DHT22;19986;48.190;16.366;2022-12-29T06:26:31;4.20;99.90
33645;DHT22;19986;48.190;16.366;2022-12-29T06:28:56;4.10;99.90
33645;DHT22;19986;48.190;16.366;2022-12-29T06:31:22;4.20;99.90
33645;DHT22;19986;48.190;16.366;2022-12-29T06:33:49;4.30;99.90
33645;DHT22;19986;48.190;16.366;2022-12-29T06:36:15;4.40;99.90
33645;DHT22;19986;48.190;16.366;2022-12-29T06:38:40;4.50;99.90
33645;DHT22;19986;48.190;16.366;2022-12-29T06:41:06;4.60;99.90
33645;DHT22;19986;48.190;16.366;2022-12-29T06:43:32;4.70;99.90
33645;DHT22;19986;48.190;16.366;2022-12-29T06:45:59;4.70;99.90
33645;DHT22;19986;48.190;16.366;2022-12-29T06:48:25;4.60;99.90
33645;DHT22;19986;48.190;16.366;2022-12-29T06:50:51;4.60;99.90
33645;DHT22;19986;48.190;16.366;2022-12-29T06:53:16;4.50;99.90
33645;DHT22;19986;48.190;16.366;2022-12-29T06:55:42;4.50;99.90
33645;DHT22;19986;48.190;16.366;2022-12-29T06:58:08;4.50;99.90
33645;DHT22;19986;48.190;16.366;2022-12-29T07:00:35;4.60;99.90
33645;DHT22;19986;48.190;16.366;2022-12-29T07:03:00;4.60;99.90
33645;DHT22;19986;48.190;16.366;2022-12-29T07:05:27;4.60;99.90
33645;DHT22;19986;48.190;16.366;2022-12-29T07:07:54;4.70;99.90
33645;DHT22;19986;48.190;16.366;2022-12-29T07:10:21;4.70;99.90
33645;DHT22;19986;48.190;16.366;2022-12-29T07:12:46;4.70;99.90
33645;DHT22;19986;48.190;16.366;2022-12-29T07:15:12;4.70;99.90
33645;DHT22;19986;48.190;16.366;2022-12-29T07:17:38;4.80;99.90
33645;DHT22;19986;48.190;16.366;2022-12-29T07:20:05;4.90;99.90
33645;DHT22;19986;48.190;16.366;2022-12-29T07:22:31;4.90;99.90
33645;DHT22;19986;48.190;16.366;2022-12-29T07:24:57;4.90;99.90
33645;DHT22;19986;48.190;16.366;2022-12-29T07:27:22;5.00;99.90
33645;DHT22;19986;48.190;16.366;2022-12-29T07:29:48;5.00;99.90
33645;DHT22;19986;48.190;16.366;2022-12-29T07:32:14;5.10;99.90
33645;DHT22;19986;48.190;16.366;2022-12-29T07:34:40;5.10;99.90
33645;DHT22;19986;48.190;16.366;2022-12-29T07:37:06;5.00;99.90
33645;DHT22;19986;48.190;16.366;2022-12-29T07:39:32;4.90;99.90
33645;DHT22;19986;48.190;16.366;2022-12-29T07:41:58;4.70;99.90
33645;DHT22;19986;48.190;16.366;2022-12-29T07:44:24;4.60;99.90
33645;DHT22;19986;48.190;16.366;2022-12-29T07:46:49;4.60;99.90
33645;DHT22;19986;48.190;16.366;2022-12-29T07:49:15;4.60;99.90
33645;DHT22;19986;48.190;16.366;2022-12-29T07:51:41;4.60;99.90
33645;DHT22;19986;48.190;16.366;2022-12-29T07:54:08;4.60;99.90
33645;DHT22;19986;48.190;16.366;2022-12-29T07:56:34;4.70;99.90
33645;DHT22;19986;48.190;16.366;2022-12-29T07:59:00;4.90;99.90
33645;DHT22;19986;48.190;16.366;2022-12-29T08:01:26;4.90;99.90
33645;DHT22;19986;48.190;16.366;2022-12-29T08:03:52;5.00;99.90
33645;DHT22;19986;48.190;16.366;2022-12-29T08:06:18;5.00;99.90
33645;DHT22;19986;48.190;16.366;2022-12-29T08:08:44;5.00;99.90
33645;DHT22;19986;48.190;16.366;2022-12-29T08:11:09;5.10;99.90
33645;DHT22;19986;48.190;16.366;2022-12-29T08:13:35;5.10;99.90
33645;DHT22;19986;48.190;16.366;2022-12-29T08:16:01;5.10;99.90
33645;DHT22;19986;48.190;16.366;2022-12-29T08:18:27;5.20;99.90
33645;DHT22;19986;48.190;16.366;2022-12-29T08:20:53;5.20;99.90
33645;DHT22;19986;48.190;16.366;2022-12-29T08:23:19;5.10;99.90
33645;DHT22;19986;48.190;16.366;2022-12-29T08:25:45;5.00;99.90
33645;DHT22;19986;48.190;16.366;2022-12-29T08:28:13;5.10;99.90
33645;DHT22;19986;48.190;16.366;2022-12-29T08:30:38;5.00;99.90
33645;DHT22;19986;48.190;16.366;2022-12-29T08:33:04;4.80;99.90
33645;DHT22;19986;48.190;16.366;2022-12-29T08:35:30;4.80;99.90
33645;DHT22;19986;48.190;16.366;2022-12-29T08:37:56;4.80;99.90
33645;DHT22;19986;48.190;16.366;2022-12-29T08:40:22;4.70;99.90
33645;DHT22;19986;48.190;16.366;2022-12-29T08:42:47;4.60;99.90
33645;DHT22;19986;48.190;16.366;2022-12-29T08:45:13;4.60;99.90
33645;DHT22;19986;48.190;16.366;2022-12-29T08:47:39;4.50;99.90
33645;DHT22;19986;48.190;16.366;2022-12-29T08:50:05;4.50;99.90
33645;DHT22;19986;48.190;16.366;2022-12-29T08:52:32;4.50;99.90
33645;DHT22;19986;48.190;16.366;2022-12-29T08:54:57;4.50;99.90
33645;DHT22;19986;48.190;16.366;2022-12-29T08:57:23;4.40;99.90
33645;DHT22;19986;48.190;16.366;2022-12-29T08:59:50;4.50;99.90
33645;DHT22;19986;48.190;16.366;2022-12-29T09:02:16;4.60;99.90
33645;DHT22;19986;48.190;16.366;2022-12-29T09:04:42;4.70;99.90
33645;DHT22;19986;48.190;16.366;2022-12-29T09:07:08;4.80;99.90
33645;DHT22;19986;48.190;16.366;2022-12-29T09:09:34;4.80;99.90
33645;DHT22;19986;48.190;16.366;2022-12-29T09:12:00;4.90;99.90
33645;DHT22;19986;48.190;16.366;2022-12-29T09:14:25;4.90;99.90
33645;DHT22;19986;48.190;16.366;2022-12-29T09:16:52;4.80;99.90
33645;DHT22;19986;48.190;16.366;2022-12-29T09:19:37;4.80;99.90
33645;DHT22;19986;48.190;16.366;2022-12-29T09:22:03;4.70;99.90
33645;DHT22;19986;48.190;16.366;2022-12-29T09:24:28;4.60;99.90
33645;DHT22;19986;48.190;16.366;2022-12-29T09:26:55;4.60;99.90
33645;DHT22;19986;48.190;16.366;2022-12-29T09:29:21;4.60;99.90
33645;DHT22;19986;48.190;16.366;2022-12-29T09:31:47;4.70;99.90
33645;DHT22;19986;48.190;16.366;2022-12-29T09:34:13;4.70;99.90
33645;DHT22;19986;48.190;16.366;2022-12-29T09:36:39;4.70;99.90
33645;DHT22;19986;48.190;16.366;2022-12-29T09:39:12;4.80;99.90
33645;DHT22;19986;48.190;16.366;2022-12-29T09:42:07;4.80;99.90
33645;DHT22;19986;48.190;16.366;2022-12-29T09:47:42;4.80;99.90
33645;DHT22;19986;48.190;16.366;2022-12-29T09:50:26;4.80;99.90
33645;DHT22;19986;48.190;16.366;2022-12-29T09:55:53;4.80;99.90
33645;DHT22;19986;48.190;16.366;2022-12-29T09:58:39;4.80;99.90
33645;DHT22;19986;48.190;16.366;2022-12-29T10:01:14;4.90;99.90
33645;DHT22;19986;48.190;16.366;2022-12-29T10:03:51;4.90;99.90
33645;DHT22;19986;48.190;16.366;2022-12-29T10:06:26;5.00;99.90
33645;DHT22;19986;48.190;16.366;2022-12-29T10:20:24;4.80;99.90
33645;DHT22;19986;48.190;16.366;2022-12-29T10:25:35;4.90;99.90
33645;DHT22;19986;48.190;16.366;2022-12-29T10:28:06;4.90;99.90
33645;DHT22;19986;48.190;16.366;2022-12-29T10:30:37;5.00;99.90
33645;DHT22;19986;48.190;16.366;2022-12-29T10:33:07;5.10;99.90
33645;DHT22;19986;48.190;16.366;2022-12-29T10:35:39;5.30;99.90
33645;DHT22;19986;48.190;16.366;2022-12-29T10:41:05;5.40;99.90
33645;DHT22;19986;48.190;16.366;2022-12-29T10:46:16;5.60;99.90
33645;DHT22;19986;48.190;16.366;2022-12-29T10:48:43;5.70;99.90
33645;DHT22;19986;48.190;16.366;2022-12-29T10:51:26;5.80;99.90
33645;DHT22;19986;48.190;16.366;2022-12-29T10:54:10;5.90;99.90
33645;DHT22;19986;48.190;16.366;2022-12-29T10:59:25;6.00;99.90
33645;DHT22;19986;48.190;16.366;2022-12-29T11:04:46;5.90;99.90
33645;DHT22;19986;48.190;16.366;2022-12-29T11:07:19;5.90;99.90
33645;DHT22;19986;48.190;16.366;2022-12-29T11:09:46;5.70;99.90
33645;DHT22;19986;48.190;16.366;2022-12-29T11:12:28;5.60;99.90
33645;DHT22;19986;48.190;16.366;2022-12-29T11:17:28;5.50;99.90
33645;DHT22;19986;48.190;16.366;2022-12-29T11:19:54;5.50;99.90
33645;DHT22;19986;48.190;16.366;2022-12-29T11:22:28;5.40;99.90
33645;DHT22;19986;48.190;16.366;2022-12-29T11:24:55;5.40;99.90
33645;DHT22;19986;48.190;16.366;2022-12-29T11:27:30;5.40;99.90
33645;DHT22;19986;48.190;16.366;2022-12-29T11:29:56;5.40;99.90
33645;DHT22;19986;48.190;16.366;2022-12-29T11:32:24;5.50;99.90
33645;DHT22;19986;48.190;16.366;2022-12-29T11:34:51;5.50;99.90
33645;DHT22;19986;48.190;16.366;2022-12-29T11:37:32;5.50;99.90
33645;DHT22;19986;48.190;16.366;2022-12-29T11:40:19;5.60;99.90
33645;DHT22;19986;48.190;16.366;2022-12-29T11:42:58;5.80;99.90
33645;DHT22;19986;48.190;16.366;2022-12-29T11:45:34;5.90;99.90
33645;DHT22;19986;48.190;16.366;2022-12-29T11:48:09;6.00;99.90
33645;DHT22;19986;48.190;16.366;2022-12-29T11:50:41;6.10;99.90
33645;DHT22;19986;48.190;16.366;2022-12-29T11:53:14;6.20;99.90
33645;DHT22;19986;48.190;16.366;2022-12-29T11:55:57;6.20;99.90
33645;DHT22;19986;48.190;16.366;2022-12-29T11:58:31;6.20;99.90
33645;DHT22;19986;48.190;16.366;2022-12-29T12:03:38;6.10;99.90
33645;DHT22;19986;48.190;16.366;2022-12-29T12:06:07;6.20;99.90
33645;DHT22;19986;48.190;16.366;2022-12-29T12:08:39;6.20;99.90
33645;DHT22;19986;48.190;16.366;2022-12-29T12:11:16;6.30;99.90
33645;DHT22;19986;48.190;16.366;2022-12-29T12:14:02;6.30;99.90
33645;DHT22;19986;48.190;16.366;2022-12-29T12:16:42;6.20;99.90
33645;DHT22;19986;48.190;16.366;2022-12-29T12:19:14;6.20;99.90
33645;DHT22;19986;48.190;16.366;2022-12-29T12:21:45;6.20;99.90
33645;DHT22;19986;48.190;16.366;2022-12-29T12:29:58;6.40;99.90
33645;DHT22;19986;48.190;16.366;2022-12-29T12:32:46;6.50;99.90
33645;DHT22;19986;48.190;16.366;2022-12-29T12:35:22;6.70;99.90
33645;DHT22;19986;48.190;16.366;2022-12-29T12:38:01;6.70;99.90
33645;DHT22;19986;48.190;16.366;2022-12-29T12:45:42;6.60;99.90
33645;DHT22;19986;48.190;16.366;2022-12-29T12:51:11;6.70;99.90
33645;DHT22;19986;48.190;16.366;2022-12-29T13:03:13;7.10;99.90
33645;DHT22;19986;48.190;16.366;2022-12-29T13:10:43;6.90;99.90
33645;DHT22;19986;48.190;16.366;2022-12-29T13:19:14;7.00;99.90
33645;DHT22;19986;48.190;16.366;2022-12-29T13:29:59;6.50;99.90
33645;DHT22;19986;48.190;16.366;2022-12-29T13:32:56;6.60;99.90
33645;DHT22;19986;48.190;16.366;2022-12-29T13:40:41;6.80;99.90
33645;DHT22;19986;48.190;16.366;2022-12-29T13:43:09;6.80;99.90
33645;DHT22;19986;48.190;16.366;2022-12-29T13:45:35;6.70;99.90
33645;DHT22;19986;48.190;16.366;2022-12-29T13:48:14;6.70;99.90
33645;DHT22;19986;48.190;16.366;2022-12-29T13:50:48;6.70;99.90
33645;DHT22;19986;48.190;16.366;2022-12-29T14:02:01;6.60;99.90
33645;DHT22;19986;48.190;16.366;2022-12-29T14:04:30;6.60;99.90
33645;DHT22;19986;48.190;16.366;2022-12-29T14:07:03;6.50;99.90
33645;DHT22;19986;48.190;16.366;2022-12-29T14:09:48;6.40;99.90
33645;DHT22;19986;48.190;16.366;2022-12-29T14:15:13;6.30;99.90
33645;DHT22;19986;48.190;16.366;2022-12-29T14:17:41;6.20;99.90
33645;DHT22;19986;48.190;16.366;2022-12-29T14:20:21;6.30;99.90
33645;DHT22;19986;48.190;16.366;2022-12-29T14:23:15;6.30;99.90
33645;DHT22;19986;48.190;16.366;2022-12-29T14:28:36;6.30;99.90
33645;DHT22;19986;48.190;16.366;2022-12-29T14:37:00;6.30;99.90
33645;DHT22;19986;48.190;16.366;2022-12-29T14:39:43;6.40;99.90
33645;DHT22;19986;48.190;16.366;2022-12-29T14:44:51;6.20;99.90
33645;DHT22;19986;48.190;16.366;2022-12-29T14:47:41;6.20;99.90
33645;DHT22;19986;48.190;16.366;2022-12-29T14:50:15;6.00;99.90
33645;DHT22;19986;48.190;16.366;2022-12-29T14:53:03;6.00;99.90
33645;DHT22;19986;48.190;16.366;2022-12-29T14:55:55;6.00;99.90
33645;DHT22;19986;48.190;16.366;2022-12-29T14:59:00;6.00;99.90
33645;DHT22;19986;48.190;16.366;2022-12-29T15:02:11;6.00;99.90
33645;DHT22;19986;48.190;16.366;2022-12-29T15:04:26;6.00;99.90
33645;DHT22;19986;48.190;16.366;2022-12-29T15:06:53;6.00;99.90
33645;DHT22;19986;48.190;16.366;2022-12-29T15:09:44;6.00;99.90
33645;DHT22;19986;48.190;16.366;2022-12-29T15:12:22;6.00;99.90
33645;DHT22;19986;48.190;16.366;2022-12-29T15:14:57;6.10;99.90
33645;DHT22;19986;48.190;16.366;2022-12-29T15:17:27;6.10;99.90
33645;DHT22;19986;48.190;16.366;2022-12-29T15:19:55;6.10;99.90
33645;DHT22;19986;48.190;16.366;2022-12-29T15:22:21;6.10;99.90
33645;DHT22;19986;48.190;16.366;2022-12-29T15:24:50;6.20;99.90
33645;DHT22;19986;48.190;16.366;2022-12-29T15:27:23;6.10;99.90
33645;DHT22;19986;48.190;16.366;2022-12-29T15:29:59;6.10;99.90
33645;DHT22;19986;48.190;16.366;2022-12-29T15:32:28;6.10;99.90
33645;DHT22;19986;48.190;16.366;2022-12-29T15:34:57;6.00;99.90
33645;DHT22;19986;48.190;16.366;2022-12-29T15:37:28;5.90;99.90
33645;DHT22;19986;48.190;16.366;2022-12-29T15:39:55;5.90;99.90
33645;DHT22;19986;48.190;16.366;2022-12-29T15:42:49;6.00;99.90
33645;DHT22;19986;48.190;16.366;2022-12-29T15:45:18;6.00;99.90
33645;DHT22;19986;48.190;16.366;2022-12-29T15:47:45;6.00;99.90
33645;DHT22;19986;48.190;16.366;2022-12-29T15:52:43;6.00;99.90
33645;DHT22;19986;48.190;16.366;2022-12-29T15:55:30;6.00;99.90
33645;DHT22;19986;48.190;16.366;2022-12-29T15:57:59;6.00;99.90
33645;DHT22;19986;48.190;16.366;2022-12-29T16:00:31;6.00;99.90
33645;DHT22;19986;48.190;16.366;2022-12-29T16:03:00;6.00;99.90
33645;DHT22;19986;48.190;16.366;2022-12-29T16:05:35;5.80;99.90
33645;DHT22;19986;48.190;16.366;2022-12-29T16:08:01;5.80;99.90
33645;DHT22;19986;48.190;16.366;2022-12-29T16:10:37;5.80;99.90
33645;DHT22;19986;48.190;16.366;2022-12-29T16:15:47;5.80;99.90
33645;DHT22;19986;48.190;16.366;2022-12-29T16:18:25;5.80;99.90
33645;DHT22;19986;48.190;16.366;2022-12-29T16:20:52;5.80;99.90
33645;DHT22;19986;48.190;16.366;2022-12-29T16:23:24;5.80;99.90
33645;DHT22;19986;48.190;16.366;2022-12-29T16:25:51;5.80;99.90
33645;DHT22;19986;48.190;16.366;2022-12-29T16:28:27;5.80;99.90
33645;DHT22;19986;48.190;16.366;2022-12-29T16:31:06;5.90;99.90
33645;DHT22;19986;48.190;16.366;2022-12-29T16:33:47;5.90;99.90
33645;DHT22;19986;48.190;16.366;2022-12-29T16:36:26;6.00;99.90
33645;DHT22;19986;48.190;16.366;2022-12-29T16:41:36;6.10;99.90
33645;DHT22;19986;48.190;16.366;2022-12-29T16:44:20;6.10;99.90
33645;DHT22;19986;48.190;16.366;2022-12-29T16:49:32;6.10;99.90
33645;DHT22;19986;48.190;16.366;2022-12-29T16:51:58;6.10;99.90
33645;DHT22;19986;48.190;16.366;2022-12-29T16:54:34;6.00;99.90
33645;DHT22;19986;48.190;16.366;2022-12-29T16:57:02;6.00;99.90
33645;DHT22;19986;48.190;16.366;2022-12-29T16:59:40;6.10;99.90
33645;DHT22;19986;48.190;16.366;2022-12-29T17:02:19;6.10;99.90
33645;DHT22;19986;48.190;16.366;2022-12-29T17:04:45;6.10;99.90
33645;DHT22;19986;48.190;16.366;2022-12-29T17:07:19;6.10;99.90
33645;DHT22;19986;48.190;16.366;2022-12-29T17:09:46;6.10;99.90
33645;DHT22;19986;48.190;16.366;2022-12-29T17:12:17;6.10;99.90
33645;DHT22;19986;48.190;16.366;2022-12-29T17:14:51;6.20;99.90
33645;DHT22;19986;48.190;16.366;2022-12-29T17:20:05;6.10;99.90
33645;DHT22;19986;48.190;16.366;2022-12-29T17:22:32;6.00;99.90
33645;DHT22;19986;48.190;16.366;2022-12-29T17:24:59;6.00;99.90
33645;DHT22;19986;48.190;16.366;2022-12-29T17:30:10;6.00;99.90
33645;DHT22;19986;48.190;16.366;2022-12-29T17:32:37;6.00;99.90
33645;DHT22;19986;48.190;16.366;2022-12-29T17:35:03;6.00;99.90
33645;DHT22;19986;48.190;16.366;2022-12-29T17:37:34;6.00;99.90
33645;DHT22;19986;48.190;16.366;2022-12-29T17:40:01;5.90;99.90
33645;DHT22;19986;48.190;16.366;2022-12-29T17:42:28;5.90;99.90
33645;DHT22;19986;48.190;16.366;2022-12-29T17:44:54;5.90;99.90
33645;DHT22;19986;48.190;16.366;2022-12-29T17:47:20;5.90;99.90
33645;DHT22;19986;48.190;16.366;2022-12-29T17:49:46;5.80;99.90
33645;DHT22;19986;48.190;16.366;2022-12-29T17:52:13;5.80;99.90
33645;DHT22;19986;48.190;16.366;2022-12-29T17:54:49;5.80;99.90
33645;DHT22;19986;48.190;16.366;2022-12-29T17:57:16;5.90;99.90
33645;DHT22;19986;48.190;16.366;2022-12-29T17:59:43;5.80;99.90
33645;DHT22;19986;48.190;16.366;2022-12-29T18:02:24;5.80;99.90
33645;DHT22;19986;48.190;16.366;2022-12-29T18:04:50;5.80;99.90
33645;DHT22;19986;48.190;16.366;2022-12-29T18:07:15;5.90;99.90
33645;DHT22;19986;48.190;16.366;2022-12-29T18:09:41;5.80;99.90
33645;DHT22;19986;48.190;16.366;2022-12-29T18:12:27;5.80;99.90
33645;DHT22;19986;48.190;16.366;2022-12-29T18:14:54;5.80;99.90
33645;DHT22;19986;48.190;16.366;2022-12-29T18:17:20;5.70;99.90
33645;DHT22;19986;48.190;16.366;2022-12-29T18:19:46;5.80;99.90
33645;DHT22;19986;48.190;16.366;2022-12-29T18:22:12;5.80;99.90
33645;DHT22;19986;48.190;16.366;2022-12-29T18:24:37;5.80;99.90
33645;DHT22;19986;48.190;16.366;2022-12-29T18:27:14;5.90;99.90
33645;DHT22;19986;48.190;16.366;2022-12-29T18:29:40;5.90;99.90
33645;DHT22;19986;48.190;16.366;2022-12-29T18:32:12;5.90;99.90
33645;DHT22;19986;48.190;16.366;2022-12-29T18:34:39;5.90;99.90
33645;DHT22;19986;48.190;16.366;2022-12-29T18:37:06;5.80;99.90
33645;DHT22;19986;48.190;16.366;2022-12-29T18:39:32;5.90;99.90
33645;DHT22;19986;48.190;16.366;2022-12-29T18:41:58;5.90;99.90
33645;DHT22;19986;48.190;16.366;2022-12-29T18:44:24;5.90;99.90
33645;DHT22;19986;48.190;16.366;2022-12-29T18:46:50;5.90;99.90
33645;DHT22;19986;48.190;16.366;2022-12-29T18:49:16;5.80;99.90
33645;DHT22;19986;48.190;16.366;2022-12-29T18:51:42;5.90;99.90
33645;DHT22;19986;48.190;16.366;2022-12-29T18:54:29;6.00;99.90
33645;DHT22;19986;48.190;16.366;2022-12-29T18:56:55;6.00;99.90
33645;DHT22;19986;48.190;16.366;2022-12-29T18:59:21;6.10;99.90
33645;DHT22;19986;48.190;16.366;2022-12-29T19:01:47;6.10;99.90
33645;DHT22;19986;48.190;16.366;2022-12-29T19:04:14;6.10;99.90
33645;DHT22;19986;48.190;16.366;2022-12-29T19:06:40;6.20;99.90
33645;DHT22;19986;48.190;16.366;2022-12-29T19:09:06;6.20;99.90
33645;DHT22;19986;48.190;16.366;2022-12-29T19:11:33;6.30;99.90
33645;DHT22;19986;48.190;16.366;2022-12-29T19:13:59;6.40;99.90
33645;DHT22;19986;48.190;16.366;2022-12-29T19:16:24;6.40;99.90
33645;DHT22;19986;48.190;16.366;2022-12-29T19:18:51;6.50;99.90
33645;DHT22;19986;48.190;16.366;2022-12-29T19:21:21;6.50;99.90
33645;DHT22;19986;48.190;16.366;2022-12-29T19:23:48;6.40;99.90
33645;DHT22;19986;48.190;16.366;2022-12-29T19:26:34;6.40;99.90
33645;DHT22;19986;48.190;16.366;2022-12-29T19:29:01;6.40;99.90
33645;DHT22;19986;48.190;16.366;2022-12-29T19:31:27;6.30;99.90
33645;DHT22;19986;48.190;16.366;2022-12-29T19:33:53;6.30;99.90
33645;DHT22;19986;48.190;16.366;2022-12-29T19:36:20;6.40;99.90
33645;DHT22;19986;48.190;16.366;2022-12-29T19:38:46;6.40;99.90
33645;DHT22;19986;48.190;16.366;2022-12-29T19:41:13;6.40;99.90
33645;DHT22;19986;48.190;16.366;2022-12-29T19:43:39;6.50;99.90
33645;DHT22;19986;48.190;16.366;2022-12-29T19:46:07;6.50;99.90
33645;DHT22;19986;48.190;16.366;2022-12-29T19:48:33;6.50;99.90
33645;DHT22;19986;48.190;16.366;2022-12-29T19:51:07;6.50;99.90
33645;DHT22;19986;48.190;16.366;2022-12-29T19:53:34;6.50;99.90
33645;DHT22;19986;48.190;16.366;2022-12-29T19:56:05;6.40;99.90
33645;DHT22;19986;48.190;16.366;2022-12-29T19:58:33;6.40;99.90
33645;DHT22;19986;48.190;16.366;2022-12-29T20:01:11;6.40;99.90
33645;DHT22;19986;48.190;16.366;2022-12-29T20:03:37;6.40;99.90
33645;DHT22;19986;48.190;16.366;2022-12-29T20:06:08;6.50;99.90
33645;DHT22;19986;48.190;16.366;2022-12-29T20:08:36;6.50;99.90
33645;DHT22;19986;48.190;16.366;2022-12-29T20:11:11;6.50;99.90
33645;DHT22;19986;48.190;16.366;2022-12-29T20:13:38;6.50;99.90
33645;DHT22;19986;48.190;16.366;2022-12-29T20:16:07;6.50;99.90
33645;DHT22;19986;48.190;16.366;2022-12-29T20:18:33;6.60;99.90
33645;DHT22;19986;48.190;16.366;2022-12-29T20:21:05;6.60;99.90
33645;DHT22;19986;48.190;16.366;2022-12-29T20:23:32;6.70;99.90
33645;DHT22;19986;48.190;16.366;2022-12-29T20:25:59;6.70;99.90
33645;DHT22;19986;48.190;16.366;2022-12-29T20:28:27;6.70;99.90
33645;DHT22;19986;48.190;16.366;2022-12-29T20:31:02;6.80;99.90
33645;DHT22;19986;48.190;16.366;2022-12-29T20:33:30;6.70;99.90
33645;DHT22;19986;48.190;16.366;2022-12-29T20:36:10;6.70;99.90
33645;DHT22;19986;48.190;16.366;2022-12-29T20:38:38;6.70;99.90
33645;DHT22;19986;48.190;16.366;2022-12-29T20:41:04;6.70;99.90
33645;DHT22;19986;48.190;16.366;2022-12-29T20:43:29;6.60;99.90
33645;DHT22;19986;48.190;16.366;2022-12-29T20:45:55;6.70;99.90
33645;DHT22;19986;48.190;16.366;2022-12-29T20:48:21;6.60;99.90
33645;DHT22;19986;48.190;16.366;2022-12-29T20:50:47;6.60;99.90
33645;DHT22;19986;48.190;16.366;2022-12-29T20:53:13;6.50;99.90
33645;DHT22;19986;48.190;16.366;2022-12-29T20:55:39;6.50;99.90
33645;DHT22;19986;48.190;16.366;2022-12-29T20:58:05;6.50;99.90
